sensor_id;sensor_type;location;lat;lon;timestamp;pressure;altitude;pressure_sealevel;temperature;humidity
18918;BME280;9591;52.742;13.650;2023-12-29T00:01:32;100323.78;;;20.59;33.70
18918;BME280;9591;52.742;13.650;2023-12-29T00:04:20;100322.97;;;19.90;34.38
18918;BME280;9591;52.742;13.650;2023-12-29T00:07:10;100317.25;;;20.84;33.22
18918;BME280;9591;52.742;13.650;2023-12-29T00:10:06;100314.81;;;20.25;34.04
18918;BME280;9591;52.742;13.650;2023-12-29T00:12:54;100315.59;;;19.70;35.09
18918;BME280;9591;52.742;13.650;2023-12-29T00:15:41;100306.97;;;19.54;35.33
18918;BME280;9591;52.742;13.650;2023-12-29T00:18:28;100307.59;;;20.26;33.82
18918;BME280;9591;52.742;13.650;2023-12-29T00:21:15;100311.59;;;19.87;34.90
18918;BME280;9591;52.742;13.650;2023-12-29T00:24:05;100286.50;;;20.44;33.89
18918;BME280;9591;52.742;13.650;2023-12-29T00:26:56;100294.38;;;18.95;36.00
18918;BME280;9591;52.742;13.650;2023-12-29T00:29:45;100289.53;;;19.01;35.63
18918;BME280;9591;52.742;13.650;2023-12-29T00:32:32;100280.09;;;20.78;33.49
18918;BME280;9591;52.742;13.650;2023-12-29T00:35:19;100275.00;;;20.42;33.96
18918;BME280;9591;52.742;13.650;2023-12-29T00:38:06;100287.81;;;20.27;34.24
18918;BME280;9591;52.742;13.650;2023-12-29T00:40:53;100273.16;;;20.65;33.64
18918;BME280;9591;52.742;13.650;2023-12-29T00:43:43;100267.50;;;20.01;34.23
18918;BME280;9591;52.742;13.650;2023-12-29T00:46:33;100263.47;;;20.06;34.38
18918;BME280;9591;52.742;13.650;2023-12-29T00:49:25;100266.88;;;19.97;34.57
18918;BME280;9591;52.742;13.650;2023-12-29T00:52:14;100260.28;;;20.79;33.20
18918;BME280;9591;52.742;13.650;2023-12-29T00:55:05;100252.25;;;20.68;33.43
18918;BME280;9591;52.742;13.650;2023-12-29T00:57:52;100244.56;;;20.41;33.55
18918;BME280;9591;52.742;13.650;2023-12-29T01:00:41;100249.78;;;20.76;33.53
18918;BME280;9591;52.742;13.650;2023-12-29T01:03:35;100238.19;;;20.09;34.42
18918;BME280;9591;52.742;13.650;2023-12-29T01:06:23;100239.53;;;21.02;32.72
18918;BME280;9591;52.742;13.650;2023-12-29T01:09:14;100235.75;;;20.61;33.54
18918;BME280;9591;52.742;13.650;2023-12-29T01:12:05;100234.78;;;20.94;32.78
18918;BME280;9591;52.742;13.650;2023-12-29T01:15:00;100226.22;;;21.33;32.26
18918;BME280;9591;52.742;13.650;2023-12-29T01:17:50;100240.41;;;20.91;32.91
18918;BME280;9591;52.742;13.650;2023-12-29T01:20:37;100228.16;;;20.55;33.62
18918;BME280;9591;52.742;13.650;2023-12-29T01:23:34;100228.97;;;20.78;33.03
18918;BME280;9591;52.742;13.650;2023-12-29T01:26:23;100223.16;;;20.28;33.88
18918;BME280;9591;52.742;13.650;2023-12-29T01:29:10;100218.22;;;20.78;33.04
18918;BME280;9591;52.742;13.650;2023-12-29T01:31:59;100221.81;;;20.34;33.71
18918;BME280;9591;52.742;13.650;2023-12-29T01:34:52;100224.16;;;19.83;34.08
18918;BME280;9591;52.742;13.650;2023-12-29T01:37:42;100218.16;;;20.46;33.69
18918;BME280;9591;52.742;13.650;2023-12-29T01:40:49;100216.31;;;20.24;33.94
18918;BME280;9591;52.742;13.650;2023-12-29T01:47:50;100219.75;;;20.49;33.34
18918;BME280;9591;52.742;13.650;2023-12-29T01:50:49;100210.69;;;20.61;33.16
18918;BME280;9591;52.742;13.650;2023-12-29T01:53:35;100212.75;;;19.57;34.25
18918;BME280;9591;52.742;13.650;2023-12-29T01:56:34;100190.25;;;20.90;32.52
18918;BME280;9591;52.742;13.650;2023-12-29T01:59:29;100197.44;;;19.46;34.40
18918;BME280;9591;52.742;13.650;2023-12-29T02:02:19;100190.28;;;21.11;32.34
18918;BME280;9591;52.742;13.650;2023-12-29T02:05:08;100195.34;;;21.05;32.29
18918;BME280;9591;52.742;13.650;2023-12-29T02:08:09;100184.09;;;20.79;32.64
18918;BME280;9591;52.742;13.650;2023-12-29T02:10:58;100176.09;;;21.09;32.45
18918;BME280;9591;52.742;13.650;2023-12-29T02:13:46;100178.56;;;20.80;32.46
18918;BME280;9591;52.742;13.650;2023-12-29T02:16:38;100173.44;;;20.77;32.54
18918;BME280;9591;52.742;13.650;2023-12-29T02:19:36;100167.19;;;20.34;33.12
18918;BME280;9591;52.742;13.650;2023-12-29T02:22:27;100164.59;;;20.32;33.16
18918;BME280;9591;52.742;13.650;2023-12-29T02:25:17;100166.56;;;20.30;33.34
18918;BME280;9591;52.742;13.650;2023-12-29T02:28:10;100158.72;;;21.13;32.17
18918;BME280;9591;52.742;13.650;2023-12-29T02:31:07;100150.81;;;20.25;33.58
18918;BME280;9591;52.742;13.650;2023-12-29T02:34:06;100157.06;;;20.15;33.71
18918;BME280;9591;52.742;13.650;2023-12-29T02:36:59;100151.84;;;20.68;32.85
18918;BME280;9591;52.742;13.650;2023-12-29T02:39:48;100156.31;;;20.13;33.46
18918;BME280;9591;52.742;13.650;2023-12-29T02:42:45;100160.72;;;20.25;33.51
18918;BME280;9591;52.742;13.650;2023-12-29T02:45:35;100148.56;;;20.64;32.98
18918;BME280;9591;52.742;13.650;2023-12-29T02:48:22;100156.63;;;20.64;32.91
18918;BME280;9591;52.742;13.650;2023-12-29T02:51:12;100147.75;;;20.19;33.34
18918;BME280;9591;52.742;13.650;2023-12-29T02:54:01;100142.53;;;19.95;33.40
18918;BME280;9591;52.742;13.650;2023-12-29T02:56:52;100141.81;;;20.70;32.60
18918;BME280;9591;52.742;13.650;2023-12-29T02:59:45;100151.34;;;19.63;34.03
18918;BME280;9591;52.742;13.650;2023-12-29T03:02:32;100137.38;;;20.25;33.00
18918;BME280;9591;52.742;13.650;2023-12-29T03:05:19;100147.25;;;20.25;33.35
18918;BME280;9591;52.742;13.650;2023-12-29T03:08:06;100126.59;;;20.48;33.09
18918;BME280;9591;52.742;13.650;2023-12-29T03:10:53;100132.66;;;20.61;33.22
18918;BME280;9591;52.742;13.650;2023-12-29T03:13:42;100128.09;;;20.18;33.59
18918;BME280;9591;52.742;13.650;2023-12-29T03:16:33;100142.25;;;19.42;34.84
18918;BME280;9591;52.742;13.650;2023-12-29T03:19:32;100115.25;;;21.18;31.93
18918;BME280;9591;52.742;13.650;2023-12-29T03:22:30;100128.84;;;21.58;31.63
18918;BME280;9591;52.742;13.650;2023-12-29T03:25:17;100117.91;;;21.29;31.91
18918;BME280;9591;52.742;13.650;2023-12-29T03:28:05;100110.84;;;20.96;32.35
18918;BME280;9591;52.742;13.650;2023-12-29T03:30:52;100112.41;;;20.78;32.43
18918;BME280;9591;52.742;13.650;2023-12-29T03:33:41;100114.00;;;21.01;32.55
18918;BME280;9591;52.742;13.650;2023-12-29T03:36:28;100109.66;;;21.10;32.30
18918;BME280;9591;52.742;13.650;2023-12-29T03:39:19;100103.50;;;20.34;33.00
18918;BME280;9591;52.742;13.650;2023-12-29T03:42:16;100104.16;;;21.11;32.39
18918;BME280;9591;52.742;13.650;2023-12-29T03:45:07;100099.78;;;21.31;31.62
18918;BME280;9591;52.742;13.650;2023-12-29T03:47:54;100090.31;;;21.77;31.33
18918;BME280;9591;52.742;13.650;2023-12-29T03:50:42;100084.81;;;20.33;33.42
18918;BME280;9591;52.742;13.650;2023-12-29T03:53:33;100081.34;;;20.53;33.02
18918;BME280;9591;52.742;13.650;2023-12-29T03:56:20;100067.06;;;20.73;32.80
18918;BME280;9591;52.742;13.650;2023-12-29T03:59:07;100067.28;;;20.06;33.91
18918;BME280;9591;52.742;13.650;2023-12-29T04:01:58;100067.09;;;20.41;33.41
18918;BME280;9591;52.742;13.650;2023-12-29T04:04:45;100071.34;;;20.44;33.16
18918;BME280;9591;52.742;13.650;2023-12-29T04:07:36;100066.72;;;20.87;32.48
18918;BME280;9591;52.742;13.650;2023-12-29T04:10:23;100057.81;;;21.69;31.48
18918;BME280;9591;52.742;13.650;2023-12-29T04:13:10;100051.81;;;21.25;31.96
18918;BME280;9591;52.742;13.650;2023-12-29T04:16:00;100039.00;;;21.17;32.12
18918;BME280;9591;52.742;13.650;2023-12-29T04:18:47;100037.63;;;21.02;32.31
18918;BME280;9591;52.742;13.650;2023-12-29T04:21:34;100046.81;;;19.83;33.93
18918;BME280;9591;52.742;13.650;2023-12-29T04:24:25;100041.09;;;20.19;33.53
18918;BME280;9591;52.742;13.650;2023-12-29T04:27:13;100035.97;;;21.72;31.50
18918;BME280;9591;52.742;13.650;2023-12-29T04:30:03;100027.75;;;20.61;33.00
18918;BME280;9591;52.742;13.650;2023-12-29T04:32:50;100015.34;;;21.21;32.07
18918;BME280;9591;52.742;13.650;2023-12-29T04:35:39;100020.16;;;21.38;31.83
18918;BME280;9591;52.742;13.650;2023-12-29T04:38:28;100014.56;;;21.70;31.49
18918;BME280;9591;52.742;13.650;2023-12-29T04:41:17;100009.81;;;20.92;32.73
18918;BME280;9591;52.742;13.650;2023-12-29T04:44:04;100018.84;;;21.12;32.17
18918;BME280;9591;52.742;13.650;2023-12-29T04:46:53;100013.25;;;20.73;32.78
18918;BME280;9591;52.742;13.650;2023-12-29T04:49:40;100004.22;;;21.25;31.89
18918;BME280;9591;52.742;13.650;2023-12-29T04:52:31;100015.56;;;20.78;32.76
18918;BME280;9591;52.742;13.650;2023-12-29T04:55:18;100008.78;;;20.63;33.18
18918;BME280;9591;52.742;13.650;2023-12-29T04:58:08;100005.91;;;20.54;33.27
18918;BME280;9591;52.742;13.650;2023-12-29T05:00:58;100008.00;;;20.08;33.87
18918;BME280;9591;52.742;13.650;2023-12-29T05:03:46;100003.59;;;19.86;34.05
18918;BME280;9591;52.742;13.650;2023-12-29T05:06:38;100007.16;;;19.64;34.31
18918;BME280;9591;52.742;13.650;2023-12-29T05:09:25;100008.66;;;20.00;34.35
18918;BME280;9591;52.742;13.650;2023-12-29T05:12:14;100006.78;;;19.46;35.09
18918;BME280;9591;52.742;13.650;2023-12-29T05:15:08;99998.06;;;20.19;33.80
18918;BME280;9591;52.742;13.650;2023-12-29T05:17:57;99990.78;;;19.45;35.16
18918;BME280;9591;52.742;13.650;2023-12-29T05:20:46;99993.25;;;20.45;33.89
18918;BME280;9591;52.742;13.650;2023-12-29T05:23:39;99986.84;;;20.14;34.14
18918;BME280;9591;52.742;13.650;2023-12-29T05:26:26;99992.47;;;21.06;32.47
18918;BME280;9591;52.742;13.650;2023-12-29T05:29:13;99985.88;;;20.15;33.60
18918;BME280;9591;52.742;13.650;2023-12-29T05:32:05;99988.34;;;21.02;32.86
18918;BME280;9591;52.742;13.650;2023-12-29T05:34:52;99985.28;;;21.37;32.02
18918;BME280;9591;52.742;13.650;2023-12-29T05:37:42;99985.75;;;21.21;32.09
18918;BME280;9591;52.742;13.650;2023-12-29T05:40:29;99987.78;;;20.56;33.32
18918;BME280;9591;52.742;13.650;2023-12-29T05:43:16;99995.88;;;21.08;32.83
18918;BME280;9591;52.742;13.650;2023-12-29T05:46:09;99977.03;;;21.08;32.69
18918;BME280;9591;52.742;13.650;2023-12-29T05:49:10;99992.59;;;21.25;32.59
18918;BME280;9591;52.742;13.650;2023-12-29T05:51:57;99986.53;;;20.40;33.29
18918;BME280;9591;52.742;13.650;2023-12-29T05:54:46;99994.16;;;20.76;33.50
18918;BME280;9591;52.742;13.650;2023-12-29T05:57:53;99993.88;;;21.61;32.02
18918;BME280;9591;52.742;13.650;2023-12-29T06:00:40;99994.28;;;21.26;32.38
18918;BME280;9591;52.742;13.650;2023-12-29T06:03:27;99986.25;;;21.36;32.54
18918;BME280;9591;52.742;13.650;2023-12-29T06:06:16;99995.25;;;20.94;33.11
18918;BME280;9591;52.742;13.650;2023-12-29T06:09:04;99979.09;;;20.32;33.78
18918;BME280;9591;52.742;13.650;2023-12-29T06:11:51;99973.47;;;21.97;31.73
18918;BME280;9591;52.742;13.650;2023-12-29T06:14:38;99970.03;;;20.65;33.50
18918;BME280;9591;52.742;13.650;2023-12-29T06:17:35;99962.63;;;20.88;33.29
18918;BME280;9591;52.742;13.650;2023-12-29T06:20:22;99961.03;;;20.55;33.62
18918;BME280;9591;52.742;13.650;2023-12-29T06:23:13;99970.56;;;21.20;32.86
18918;BME280;9591;52.742;13.650;2023-12-29T06:26:00;99973.16;;;21.01;33.30
18918;BME280;9591;52.742;13.650;2023-12-29T06:28:49;99974.63;;;20.21;34.50
18918;BME280;9591;52.742;13.650;2023-12-29T06:31:36;99980.75;;;20.86;33.49
18918;BME280;9591;52.742;13.650;2023-12-29T06:34:30;99984.66;;;20.72;33.45
18918;BME280;9591;52.742;13.650;2023-12-29T06:37:20;99989.72;;;20.66;33.88
18918;BME280;9591;52.742;13.650;2023-12-29T06:40:12;99987.78;;;20.77;33.42
18918;BME280;9591;52.742;13.650;2023-12-29T06:43:00;99981.38;;;20.99;33.17
18918;BME280;9591;52.742;13.650;2023-12-29T06:45:47;99974.03;;;19.86;35.09
18918;BME280;9591;52.742;13.650;2023-12-29T06:49:07;99985.56;;;20.29;34.14
18918;BME280;9591;52.742;13.650;2023-12-29T06:51:58;99976.66;;;19.97;34.94
18918;BME280;9591;52.742;13.650;2023-12-29T06:54:45;99974.00;;;20.18;34.68
18918;BME280;9591;52.742;13.650;2023-12-29T06:57:36;99965.28;;;20.57;33.38
18918;BME280;9591;52.742;13.650;2023-12-29T07:00:27;99969.56;;;20.60;33.62
18918;BME280;9591;52.742;13.650;2023-12-29T07:03:16;99981.59;;;20.86;33.35
18918;BME280;9591;52.742;13.650;2023-12-29T07:06:04;99989.72;;;20.02;34.43
18918;BME280;9591;52.742;13.650;2023-12-29T07:08:53;99990.09;;;19.54;34.93
18918;BME280;9591;52.742;13.650;2023-12-29T07:11:40;99953.50;;;20.49;33.75
18918;BME280;9591;52.742;13.650;2023-12-29T07:14:31;99982.97;;;20.81;33.35
18918;BME280;9591;52.742;13.650;2023-12-29T07:17:18;99993.72;;;21.22;32.35
18918;BME280;9591;52.742;13.650;2023-12-29T07:24:07;99982.47;;;21.17;32.89
18918;BME280;9591;52.742;13.650;2023-12-29T07:26:57;99985.94;;;21.79;31.95
18918;BME280;9591;52.742;13.650;2023-12-29T07:29:48;99990.28;;;20.48;33.53
18918;BME280;9591;52.742;13.650;2023-12-29T07:32:35;100000.13;;;20.59;33.61
18918;BME280;9591;52.742;13.650;2023-12-29T07:35:22;99988.44;;;21.21;33.00
18918;BME280;9591;52.742;13.650;2023-12-29T07:38:09;100004.38;;;20.41;33.95
18918;BME280;9591;52.742;13.650;2023-12-29T07:40:56;100014.34;;;20.91;33.00
18918;BME280;9591;52.742;13.650;2023-12-29T07:43:44;100006.34;;;20.80;33.87
18918;BME280;9591;52.742;13.650;2023-12-29T07:46:46;100010.03;;;20.58;33.54
18918;BME280;9591;52.742;13.650;2023-12-29T07:49:42;99997.63;;;20.46;33.85
18918;BME280;9591;52.742;13.650;2023-12-29T07:52:35;100022.00;;;21.38;32.70
18918;BME280;9591;52.742;13.650;2023-12-29T07:55:22;100011.50;;;21.14;33.24
18918;BME280;9591;52.742;13.650;2023-12-29T07:58:12;100014.00;;;21.06;32.86
18918;BME280;9591;52.742;13.650;2023-12-29T08:01:01;100007.91;;;21.04;33.16
18918;BME280;9591;52.742;13.650;2023-12-29T08:03:54;100028.75;;;20.60;33.86
18918;BME280;9591;52.742;13.650;2023-12-29T08:07:06;100022.03;;;21.47;32.24
18918;BME280;9591;52.742;13.650;2023-12-29T08:09:53;100013.47;;;21.82;31.97
18918;BME280;9591;52.742;13.650;2023-12-29T08:12:40;100026.91;;;22.22;31.66
18918;BME280;9591;52.742;13.650;2023-12-29T08:15:27;100005.59;;;20.69;33.58
18918;BME280;9591;52.742;13.650;2023-12-29T08:18:14;100005.41;;;20.91;33.38
18918;BME280;9591;52.742;13.650;2023-12-29T08:21:05;100023.13;;;21.14;33.37
18918;BME280;9591;52.742;13.650;2023-12-29T08:23:59;100019.38;;;20.75;33.72
18918;BME280;9591;52.742;13.650;2023-12-29T08:26:49;100019.06;;;21.50;32.79
18918;BME280;9591;52.742;13.650;2023-12-29T08:29:37;100018.84;;;21.12;33.30
18918;BME280;9591;52.742;13.650;2023-12-29T08:32:25;100022.31;;;20.72;34.56
18918;BME280;9591;52.742;13.650;2023-12-29T08:35:12;100019.56;;;21.35;34.03
18918;BME280;9591;52.742;13.650;2023-12-29T08:38:02;100015.38;;;22.11;32.72
18918;BME280;9591;52.742;13.650;2023-12-29T08:40:52;100024.50;;;21.79;32.95
18918;BME280;9591;52.742;13.650;2023-12-29T08:43:39;100019.50;;;22.05;32.77
18918;BME280;9591;52.742;13.650;2023-12-29T08:46:28;100025.16;;;22.02;32.75
18918;BME280;9591;52.742;13.650;2023-12-29T08:49:17;100011.50;;;21.94;32.59
18918;BME280;9591;52.742;13.650;2023-12-29T08:52:04;100004.34;;;21.74;32.90
18918;BME280;9591;52.742;13.650;2023-12-29T08:54:53;100008.09;;;21.12;33.90
18918;BME280;9591;52.742;13.650;2023-12-29T08:57:40;100013.44;;;20.40;35.06
18918;BME280;9591;52.742;13.650;2023-12-29T09:00:29;100001.97;;;20.79;34.32
18918;BME280;9591;52.742;13.650;2023-12-29T09:03:16;100009.59;;;21.05;34.08
18918;BME280;9591;52.742;13.650;2023-12-29T09:06:03;100021.53;;;20.17;35.37
18918;BME280;9591;52.742;13.650;2023-12-29T09:08:50;100013.13;;;20.54;34.35
18918;BME280;9591;52.742;13.650;2023-12-29T09:11:42;100020.03;;;21.99;32.45
18918;BME280;9591;52.742;13.650;2023-12-29T09:14:36;100020.38;;;21.05;33.42
18918;BME280;9591;52.742;13.650;2023-12-29T09:17:23;100026.28;;;20.99;34.12
18918;BME280;9591;52.742;13.650;2023-12-29T09:20:10;100030.88;;;20.87;34.00
18918;BME280;9591;52.742;13.650;2023-12-29T09:22:57;100041.72;;;21.98;32.54
18918;BME280;9591;52.742;13.650;2023-12-29T09:25:50;100030.63;;;20.90;33.68
18918;BME280;9591;52.742;13.650;2023-12-29T09:28:41;100023.34;;;21.63;33.09
18918;BME280;9591;52.742;13.650;2023-12-29T09:31:53;100027.50;;;21.15;33.43
18918;BME280;9591;52.742;13.650;2023-12-29T09:34:40;100018.22;;;22.09;32.25
18918;BME280;9591;52.742;13.650;2023-12-29T09:37:28;100039.41;;;21.74;33.00
18918;BME280;9591;52.742;13.650;2023-12-29T09:40:17;100041.22;;;21.64;33.09
18918;BME280;9591;52.742;13.650;2023-12-29T09:43:10;100025.69;;;21.96;32.55
18918;BME280;9591;52.742;13.650;2023-12-29T09:45:59;100023.34;;;22.32;31.92
18918;BME280;9591;52.742;13.650;2023-12-29T09:48:52;100022.91;;;21.57;33.31
18918;BME280;9591;52.742;13.650;2023-12-29T09:51:40;100036.88;;;21.82;33.38
18918;BME280;9591;52.742;13.650;2023-12-29T09:54:27;100040.16;;;21.95;32.76
18918;BME280;9591;52.742;13.650;2023-12-29T09:57:15;100044.78;;;21.74;33.01
18918;BME280;9591;52.742;13.650;2023-12-29T10:00:03;100044.03;;;21.52;33.52
18918;BME280;9591;52.742;13.650;2023-12-29T10:02:58;100049.19;;;21.75;33.70
18918;BME280;9591;52.742;13.650;2023-12-29T10:05:56;100060.63;;;21.06;35.50
18918;BME280;9591;52.742;13.650;2023-12-29T10:08:50;100068.25;;;21.22;36.14
18918;BME280;9591;52.742;13.650;2023-12-29T10:11:43;100063.94;;;22.11;35.33
18918;BME280;9591;52.742;13.650;2023-12-29T10:14:40;100074.53;;;22.03;35.75
18918;BME280;9591;52.742;13.650;2023-12-29T10:17:39;100065.75;;;21.30;36.89
18918;BME280;9591;52.742;13.650;2023-12-29T10:20:44;100075.66;;;22.00;36.08
18918;BME280;9591;52.742;13.650;2023-12-29T10:23:42;100071.94;;;20.79;39.10
18918;BME280;9591;52.742;13.650;2023-12-29T10:26:32;100062.81;;;21.83;36.97
18918;BME280;9591;52.742;13.650;2023-12-29T10:29:20;100064.09;;;21.79;37.32
18918;BME280;9591;52.742;13.650;2023-12-29T10:32:09;100070.19;;;21.81;37.23
18918;BME280;9591;52.742;13.650;2023-12-29T10:35:07;100066.09;;;22.27;36.40
18918;BME280;9591;52.742;13.650;2023-12-29T10:38:10;100048.19;;;22.16;36.56
18918;BME280;9591;52.742;13.650;2023-12-29T10:41:13;100035.41;;;22.66;35.71
18918;BME280;9591;52.742;13.650;2023-12-29T10:44:07;100042.13;;;21.83;37.45
18918;BME280;9591;52.742;13.650;2023-12-29T10:46:59;100049.50;;;22.41;36.37
18918;BME280;9591;52.742;13.650;2023-12-29T10:49:58;100044.19;;;22.78;35.49
18918;BME280;9591;52.742;13.650;2023-12-29T10:52:45;100046.31;;;23.03;35.12
18918;BME280;9591;52.742;13.650;2023-12-29T10:55:39;100045.34;;;22.95;35.21
18918;BME280;9591;52.742;13.650;2023-12-29T10:58:25;100048.69;;;23.26;34.64
18918;BME280;9591;52.742;13.650;2023-12-29T11:01:14;100043.34;;;22.97;35.09
18918;BME280;9591;52.742;13.650;2023-12-29T11:04:06;100034.41;;;22.86;35.50
18918;BME280;9591;52.742;13.650;2023-12-29T11:06:56;100046.25;;;23.32;35.22
18918;BME280;9591;52.742;13.650;2023-12-29T11:09:43;100045.56;;;23.20;35.21
18918;BME280;9591;52.742;13.650;2023-12-29T11:12:41;100044.88;;;23.46;34.78
18918;BME280;9591;52.742;13.650;2023-12-29T11:15:30;100033.88;;;23.94;34.13
18918;BME280;9591;52.742;13.650;2023-12-29T11:18:19;100022.38;;;23.65;34.58
18918;BME280;9591;52.742;13.650;2023-12-29T11:21:11;100028.97;;;23.43;35.07
18918;BME280;9591;52.742;13.650;2023-12-29T11:24:05;100025.53;;;24.05;34.02
18918;BME280;9591;52.742;13.650;2023-12-29T11:27:11;100016.06;;;23.74;33.99
18918;BME280;9591;52.742;13.650;2023-12-29T11:30:07;100009.13;;;23.34;34.27
18918;BME280;9591;52.742;13.650;2023-12-29T11:33:01;99991.63;;;22.92;34.97
18918;BME280;9591;52.742;13.650;2023-12-29T11:35:54;100003.06;;;22.28;34.97
18918;BME280;9591;52.742;13.650;2023-12-29T11:38:53;99997.81;;;22.16;34.97
18918;BME280;9591;52.742;13.650;2023-12-29T11:41:49;99997.16;;;21.84;34.39
18918;BME280;9591;52.742;13.650;2023-12-29T11:44:45;100001.75;;;22.61;33.40
18918;BME280;9591;52.742;13.650;2023-12-29T11:47:37;99996.16;;;21.85;34.47
18918;BME280;9591;52.742;13.650;2023-12-29T11:50:29;99988.00;;;22.25;33.70
18918;BME280;9591;52.742;13.650;2023-12-29T11:53:32;99977.88;;;22.66;32.81
18918;BME280;9591;52.742;13.650;2023-12-29T11:56:21;99971.19;;;21.64;33.51
18918;BME280;9591;52.742;13.650;2023-12-29T11:59:18;99961.56;;;21.31;34.35
18918;BME280;9591;52.742;13.650;2023-12-29T12:02:27;99957.56;;;22.81;32.62
18918;BME280;9591;52.742;13.650;2023-12-29T12:05:44;99964.56;;;23.11;31.88
18918;BME280;9591;52.742;13.650;2023-12-29T12:08:34;99975.22;;;21.39;33.66
18918;BME280;9591;52.742;13.650;2023-12-29T12:11:43;99981.13;;;21.92;33.13
18918;BME280;9591;52.742;13.650;2023-12-29T12:14:51;99983.75;;;22.13;31.97
18918;BME280;9591;52.742;13.650;2023-12-29T12:17:41;99967.94;;;22.66;32.02
18918;BME280;9591;52.742;13.650;2023-12-29T12:20:34;99974.94;;;22.40;32.26
18918;BME280;9591;52.742;13.650;2023-12-29T12:23:26;99972.91;;;21.93;32.07
18918;BME280;9591;52.742;13.650;2023-12-29T12:26:23;99966.66;;;21.83;32.91
18918;BME280;9591;52.742;13.650;2023-12-29T12:29:14;99960.75;;;22.38;32.10
18918;BME280;9591;52.742;13.650;2023-12-29T12:32:01;99926.06;;;21.56;32.28
18918;BME280;9591;52.742;13.650;2023-12-29T12:34:50;99961.84;;;21.87;32.87
18918;BME280;9591;52.742;13.650;2023-12-29T12:37:38;99955.97;;;22.88;31.74
18918;BME280;9591;52.742;13.650;2023-12-29T12:40:27;99956.41;;;23.30;31.08
18918;BME280;9591;52.742;13.650;2023-12-29T12:43:15;99962.25;;;21.63;32.74
18918;BME280;9591;52.742;13.650;2023-12-29T12:46:03;99967.91;;;21.70;33.70
18918;BME280;9591;52.742;13.650;2023-12-29T12:48:55;99984.41;;;21.96;34.44
18918;BME280;9591;52.742;13.650;2023-12-29T12:55:24;99979.97;;;21.75;34.54
18918;BME280;9591;52.742;13.650;2023-12-29T12:58:11;99966.91;;;21.61;35.11
18918;BME280;9591;52.742;13.650;2023-12-29T13:01:01;99966.78;;;21.22;36.17
18918;BME280;9591;52.742;13.650;2023-12-29T13:03:56;99965.94;;;21.62;35.86
18918;BME280;9591;52.742;13.650;2023-12-29T13:06:46;99972.22;;;21.32;36.82
18918;BME280;9591;52.742;13.650;2023-12-29T13:09:39;99972.53;;;21.39;37.09
18918;BME280;9591;52.742;13.650;2023-12-29T13:12:30;99966.84;;;22.11;35.95
18918;BME280;9591;52.742;13.650;2023-12-29T13:15:17;99968.50;;;21.23;37.35
18918;BME280;9591;52.742;13.650;2023-12-29T13:18:09;99980.34;;;21.21;37.69
18918;BME280;9591;52.742;13.650;2023-12-29T13:20:56;99965.00;;;22.11;35.95
18918;BME280;9591;52.742;13.650;2023-12-29T13:23:47;99974.78;;;21.34;37.46
18918;BME280;9591;52.742;13.650;2023-12-29T13:26:34;99967.25;;;22.54;35.46
18918;BME280;9591;52.742;13.650;2023-12-29T13:29:44;99961.00;;;22.54;35.33
18918;BME280;9591;52.742;13.650;2023-12-29T13:32:34;99967.13;;;21.39;37.30
18918;BME280;9591;52.742;13.650;2023-12-29T13:35:35;99968.94;;;21.98;37.02
18918;BME280;9591;52.742;13.650;2023-12-29T13:38:36;99978.56;;;21.81;37.64
18918;BME280;9591;52.742;13.650;2023-12-29T13:41:55;99971.97;;;22.33;36.75
18918;BME280;9591;52.742;13.650;2023-12-29T13:44:45;99960.56;;;21.91;37.40
18918;BME280;9591;52.742;13.650;2023-12-29T13:47:37;99964.09;;;22.69;36.53
18918;BME280;9591;52.742;13.650;2023-12-29T13:50:25;99944.31;;;22.97;35.77
18918;BME280;9591;52.742;13.650;2023-12-29T13:53:17;99941.63;;;22.87;36.01
18918;BME280;9591;52.742;13.650;2023-12-29T13:56:09;99947.41;;;23.02;35.70
18918;BME280;9591;52.742;13.650;2023-12-29T13:59:30;99935.47;;;23.60;34.82
18918;BME280;9591;52.742;13.650;2023-12-29T14:02:28;99939.09;;;23.23;35.70
18918;BME280;9591;52.742;13.650;2023-12-29T14:05:28;99944.28;;;23.34;35.31
18918;BME280;9591;52.742;13.650;2023-12-29T14:08:29;99934.97;;;23.19;35.48
18918;BME280;9591;52.742;13.650;2023-12-29T14:11:23;99941.38;;;23.18;35.65
18918;BME280;9591;52.742;13.650;2023-12-29T14:14:10;99940.94;;;22.85;36.43
18918;BME280;9591;52.742;13.650;2023-12-29T14:16:59;99946.91;;;22.60;36.71
18918;BME280;9591;52.742;13.650;2023-12-29T14:19:50;99930.56;;;22.81;36.51
18918;BME280;9591;52.742;13.650;2023-12-29T14:22:39;99938.53;;;22.73;36.21
18918;BME280;9591;52.742;13.650;2023-12-29T14:25:31;99888.34;;;21.95;37.60
18918;BME280;9591;52.742;13.650;2023-12-29T14:28:22;99919.94;;;21.35;39.06
18918;BME280;9591;52.742;13.650;2023-12-29T14:31:09;99925.88;;;21.08;39.92
18918;BME280;9591;52.742;13.650;2023-12-29T14:33:58;99921.13;;;20.90;39.54
18918;BME280;9591;52.742;13.650;2023-12-29T14:36:49;99930.19;;;20.59;39.84
18918;BME280;9591;52.742;13.650;2023-12-29T14:39:36;99934.28;;;21.45;38.42
18918;BME280;9591;52.742;13.650;2023-12-29T14:42:23;99932.94;;;20.99;39.22
18918;BME280;9591;52.742;13.650;2023-12-29T14:45:10;99938.81;;;21.54;37.64
18918;BME280;9591;52.742;13.650;2023-12-29T14:47:59;99938.63;;;21.36;38.04
18918;BME280;9591;52.742;13.650;2023-12-29T14:50:47;99929.25;;;22.09;36.79
18918;BME280;9591;52.742;13.650;2023-12-29T14:53:35;99927.44;;;22.76;35.50
18918;BME280;9591;52.742;13.650;2023-12-29T14:56:24;99929.41;;;22.93;35.01
18918;BME280;9591;52.742;13.650;2023-12-29T14:59:14;99926.25;;;22.51;35.75
18918;BME280;9591;52.742;13.650;2023-12-29T15:02:01;99920.59;;;22.35;35.60
18918;BME280;9591;52.742;13.650;2023-12-29T15:04:55;99923.38;;;21.16;36.83
18918;BME280;9591;52.742;13.650;2023-12-29T15:07:43;99922.25;;;20.78;37.88
18918;BME280;9591;52.742;13.650;2023-12-29T15:10:33;99918.47;;;22.29;35.39
18918;BME280;9591;52.742;13.650;2023-12-29T15:13:22;99907.63;;;21.42;36.27